Terminal Aerodrome Forecast
Issued by NWS

Home | Current Version | Previous Version | Text Only | Print | Product List | Glossary On
Versions: 1 2 3 4 5 6 7 8 9 10 11 12 13 14 15
000
FTUS43 KMQT 231700
TAFSAW
TAF
KSAW 231723Z 2318/2418 22003KT P6SM SKC
     FM231900 10005KT P6SM SKC
     FM240000 18003KT P6SM SKC
     FM241400 19008KT P6SM BKN250
      AMD LTD TO CLD VIS AND WIND 2402/2410=

USA.gov is the U.S. government's official web portal to all federal, state and local government web resources and services.